Latest Weather Observations for Mount Keith

IDW60801

Issued at 10:05 pm WST Monday 28 July 2014 (issued every 30 minutes, with the page automatically refreshed every 10 minutes)

About weather observations | Map of weather stations | Latest weather observations for WA | Other Formats
Station Details ID: 512019 Name: MOUNT KEITH Lat: -27.29 Lon: 120.55 Height: 542.33 m
Data from the previous 72 hours. | See also: Recent months for locations in Western Australia
Date/Time
WST
Temp
°C
App
Temp
°C
Dew
Point
Rel
Hum
%
Delta-T
°C
Wind Press
QNH
hPa
Press
MSL
hPa
Rain
since 9 am
mm
Dir
 
Spd
km/h
Gust
km/h
Spd
kts
Gust
kts
28/10:00pm 13.1 9.6 3.7 53 4.3 S 11 15 6 8 1024.5 1024.2 0.0
28/09:30pm 12.7 8.8 3.6 54 4.2 S 13 13 7 7 1024.6 - 0.0
28/09:00pm 11.2 8.4 3.3 58 3.6 SSW 7 9 4 5 1024.4 1024.1 0.0
28/08:30pm 12.2 9.5 3.7 56 3.9 W 7 9 4 5 1024.2 - 0.0
28/08:00pm 12.9 10.1 3.3 52 4.4 S 7 7 4 4 1023.9 1023.5 0.0
28/07:30pm 14.5 11.8 3.6 48 5.1 S 7 9 4 5 1023.7 - 0.0
28/07:00pm 16.2 12.8 3.9 44 5.9 SSW 11 15 6 8 1023.5 1023.1 0.0
28/06:30pm 16.6 13.6 4.0 43 6.0 S 9 11 5 6 1023.4 - 0.0
28/06:00pm 17.1 14.6 3.8 41 6.4 SW 6 9 3 5 1023.0 1022.6 0.0
28/05:30pm 19.0 16.4 4.0 37 7.3 SSW 7 11 4 6 1022.6 - 0.0
28/05:00pm 19.9 16.4 3.6 34 7.9 SW 11 13 6 7 1022.3 1021.9 0.0
28/04:30pm 20.4 15.5 4.0 34 8.1 SW 19 24 10 13 1022.3 - 0.0
28/04:00pm 21.0 17.3 4.6 34 8.2 W 13 28 7 15 1022.1 1021.7 0.0
28/03:30pm 20.8 16.4 4.8 35 8.0 WSW 17 26 9 14 1022.1 - 0.0
28/03:00pm 20.4 16.8 5.2 37 7.6 WSW 13 22 7 12 1022.2 1021.8 0.0
28/02:30pm 20.7 18.4 5.5 37 7.7 N 7 15 4 8 1022.2 - 0.0
28/02:00pm 20.2 17.5 5.4 38 7.5 S 9 13 5 7 1022.5 1022.2 0.0
28/01:30pm 19.9 17.2 5.5 39 7.3 NNE 9 15 5 8 1022.7 - 0.0
28/01:00pm 19.1 16.4 5.6 41 6.8 WNW 9 13 5 7 1023.3 1022.9 0.0
28/12:30pm 19.3 16.8 5.0 39 7.1 NNE 7 11 4 6 1023.8 - 0.0
28/12:00pm 18.2 15.6 4.4 40 6.7 SW 7 13 4 7 1024.3 1024.0 0.0
28/11:30am 17.9 15.5 4.5 41 6.6 SSE 6 13 3 7 1024.7 - 0.0
28/11:00am 17.1 14.0 3.8 41 6.4 SE 9 15 5 8 1025.4 1025.0 0.0
28/10:30am 16.8 13.1 4.2 43 6.1 SE 13 20 7 11 1025.7 - 0.0
28/10:00am 15.9 11.8 4.3 46 5.5 SE 15 19 8 10 1025.9 1025.6 0.0
28/09:30am 15.4 10.4 4.5 48 5.2 SE 20 28 11 15 1026.0 - 0.0
28/09:00am 14.4 9.4 4.4 51 4.7 SSE 20 28 11 15 1025.9 1025.6 0.0
28/08:30am 13.6 8.6 4.5 54 4.3 SSE 20 26 11 14 1025.6 - 0.0
28/08:00am 12.3 7.6 5.0 61 3.4 SSE 19 24 10 13 1025.2 1024.8 0.0
28/07:30am 11.4 7.1 5.1 65 3.0 SSE 17 20 9 11 1024.9 - 0.0
28/07:00am 9.9 6.4 5.5 74 2.1 S 13 17 7 9 1024.3 1024.0 0.0
28/06:30am 9.9 6.2 6.1 77 1.8 S 15 20 8 11 1023.9 - 0.0
28/06:00am 9.6 6.0 6.7 82 1.4 S 15 19 8 10 1023.7 1023.3 0.0
28/05:30am 9.2 6.4 6.8 85 1.2 SSW 11 13 6 7 1023.5 - 0.0
28/05:00am 8.0 5.7 5.5 84 1.2 SSW 7 9 4 5 1023.4 1023.0 0.0
28/04:30am 9.0 6.6 7.1 88 0.9 SSW 9 11 5 6 1023.2 - 0.0
28/04:00am 7.2 6.1 5.2 87 0.9 SSE 0 0 0 0 1023.2 1022.8 0.0
28/03:30am 8.0 7.0 5.8 86 1.0 CALM 0 0 0 0 1023.2 - 0.0
28/03:00am 7.9 6.8 5.2 83 1.2 CALM 0 0 0 0 1023.1 1022.7 0.0
28/02:30am 8.5 7.5 5.8 83 1.3 CALM 0 6 0 3 1023.2 - 0.0
28/02:00am 10.6 8.5 6.7 77 1.9 S 7 11 4 6 1023.3 1022.9 0.0
28/01:30am 11.2 8.9 7.5 78 1.8 SSW 9 11 5 6 1023.5 - 0.0
28/01:00am 10.9 9.2 7.4 79 1.7 SSW 6 7 3 4 1023.6 1023.2 0.0
28/12:30am 11.5 9.6 7.6 77 1.9 S 7 9 4 5 1023.5 - 0.0
28/12:00am 12.1 9.8 7.6 74 2.2 S 9 11 5 6 1023.7 1023.3 0.0
 
Date/Time
WST
Temp
°C
App
Temp
°C
Dew
Point
Rel
Hum
%
Delta-T
°C
Wind Press
QNH
hPa
Press
MSL
hPa
Rain
since 9 am
mm
Dir
 
Spd
km/h
Gust
km/h
Spd
kts
Gust
kts
27/11:30pm 12.8 10.2 7.9 72 2.5 S 11 13 6 7 1023.6 - 0.0
27/11:00pm 13.3 10.8 8.2 71 2.6 S 11 13 6 7 1023.8 1023.4 0.0
27/10:30pm 13.8 11.3 8.4 70 2.8 SSW 11 15 6 8 1023.7 - 0.0
27/10:00pm 12.3 10.3 7.2 71 2.5 S 7 9 4 5 1023.6 1023.2 0.0
27/09:30pm 13.5 11.0 6.6 63 3.4 S 9 11 5 6 1023.4 - 0.0
27/09:00pm 13.5 11.2 5.9 60 3.7 SSE 7 9 4 5 1023.4 1023.0 0.0
27/08:30pm 15.2 11.9 6.5 56 4.4 SSW 13 15 7 8 1023.3 - 0.0
27/08:00pm 15.2 12.1 5.7 53 4.7 S 11 11 6 6 1023.0 1022.6 0.0
27/07:30pm 15.3 12.4 4.7 49 5.1 S 9 11 5 6 1022.8 - 0.0
27/07:00pm 15.8 12.1 4.5 47 5.4 SW 13 15 7 8 1022.5 1022.2 0.0
27/06:30pm 16.6 13.6 4.3 44 5.9 WSW 9 11 5 6 1022.0 - 0.0
27/06:00pm 18.1 15.1 4.3 40 6.7 WSW 9 9 5 5 1021.8 1021.4 0.0
27/05:30pm 19.8 16.8 4.3 36 7.7 WSW 9 13 5 7 1021.5 - 0.0
27/05:00pm 20.8 17.5 4.4 34 8.2 W 11 15 6 8 1021.2 1020.8 0.0
27/04:30pm 21.5 17.7 4.1 32 8.7 W 13 19 7 10 1021.0 - 0.0
27/04:00pm 21.4 18.9 4.5 33 8.5 SW 7 17 4 9 1020.8 1020.5 0.0
27/03:30pm 21.8 17.8 4.8 33 8.6 WSW 15 22 8 12 1020.8 - 0.0
27/03:00pm 21.7 18.4 4.7 33 8.6 WNW 11 20 6 11 1021.0 1020.6 0.0
27/02:30pm 21.1 18.5 4.2 33 8.4 NNE 7 15 4 8 1021.1 - 0.0
27/02:00pm 20.8 17.4 4.0 33 8.3 NW 11 20 6 11 1021.3 1020.9 0.0
27/01:30pm 21.3 17.2 4.4 33 8.5 WNW 15 22 8 12 1021.4 - 0.0
27/01:00pm 21.4 16.3 4.0 32 8.6 WSW 20 22 11 12 1021.9 1021.5 0.0
27/12:30pm 19.9 16.4 3.6 34 8.0 NW 11 20 6 11 1022.3 - 0.0
27/12:00pm 19.8 16.8 4.3 36 7.6 W 9 20 5 11 1023.0 1022.6 0.0
27/11:30am 19.4 15.7 4.3 37 7.4 W 13 20 7 11 1023.7 - 0.0
27/11:00am 19.0 15.7 4.7 39 7.1 W 11 17 6 9 1024.1 1023.8 0.0
27/10:30am 18.4 15.9 4.9 41 6.7 WSW 7 13 4 7 1024.5 - 0.0
27/10:00am 17.5 14.7 5.1 44 6.1 WSW 9 13 5 7 1024.6 1024.3 0.0
27/09:30am 16.2 13.2 4.3 45 5.7 SW 9 13 5 7 1024.9 - 0.0
27/09:00am 15.9 12.5 2.0 39 6.3 SW 9 13 5 7 1024.6 1024.3 0.0
27/08:30am 14.0 11.6 2.0 44 5.4 WNW 4 11 2 6 1024.3 - 0.0
27/08:00am 11.4 8.4 0.8 48 4.5 NW 6 9 3 5 1024.0 1023.7 0.0
27/07:30am 8.3 4.5 -0.7 53 3.6 WNW 9 11 5 6 1023.8 - 0.0
27/07:00am 6.2 1.9 -1.4 58 2.9 NW 11 11 6 6 1023.3 1022.9 0.0
27/06:30am 5.8 1.9 -1.6 59 2.8 NW 9 11 5 6 1023.1 - 0.0
27/06:00am 5.8 1.9 -1.8 58 2.9 NW 9 11 5 6 1022.8 1022.5 0.0
27/05:30am 5.7 1.7 -1.9 58 2.9 NW 9 11 5 6 1022.6 - 0.0
27/05:00am 5.8 1.8 -2.3 56 3.0 NW 9 11 5 6 1022.3 1021.9 0.0
27/04:30am 5.9 1.9 -2.4 55 3.1 WNW 9 9 5 5 1022.2 - 0.0
27/04:00am 5.5 1.8 -2.8 55 3.1 WNW 7 7 4 4 1022.1 1021.7 0.0
27/03:30am 6.3 2.6 -2.8 52 3.4 W 7 9 4 5 1022.1 - 0.0
27/03:00am 6.5 2.4 -3.2 50 3.6 W 9 9 5 5 1022.1 1021.7 0.0
27/02:30am 7.0 2.9 -3.0 49 3.7 W 9 11 5 6 1022.1 - 0.0
27/02:00am 7.7 3.2 -3.2 46 4.1 W 11 11 6 6 1022.1 1021.7 0.0
27/01:30am 8.0 3.2 -2.9 46 4.1 W 13 15 7 8 1022.0 - 0.0
27/01:00am 8.0 3.5 -2.9 46 4.1 W 11 13 6 7 1022.0 1021.6 0.0
27/12:30am 7.7 3.2 -3.5 45 4.2 W 11 11 6 6 1022.1 - 0.0
27/12:00am 8.1 4.0 -3.4 44 4.3 WNW 9 11 5 6 1022.0 1021.6 0.0
 
Date/Time
WST
Temp
°C
App
Temp
°C
Dew
Point
Rel
Hum
%
Delta-T
°C
Wind Press
QNH
hPa
Press
MSL
hPa
Rain
since 9 am
mm
Dir
 
Spd
km/h
Gust
km/h
Spd
kts
Gust
kts
26/11:30pm 8.3 4.2 -3.2 44 4.4 NW 9 9 5 5 1022.1 - 0.0
26/11:00pm 9.4 5.2 -3.5 40 4.9 W 9 9 5 5 1022.2 1021.8 0.0
26/10:30pm 9.7 5.6 -2.9 41 4.9 W 9 9 5 5 1022.2 - 0.0
26/10:00pm 10.0 5.9 -3.0 40 5.0 WNW 9 9 5 5 1022.3 1021.9 0.0
26/09:30pm 11.1 7.0 -3.0 37 5.5 WNW 9 11 5 6 1022.4 - 0.0
26/09:00pm 12.8 8.3 -3.5 32 6.4 NW 11 15 6 8 1022.2 1021.8 0.0
26/08:30pm 14.2 9.3 -3.1 30 7.0 NNW 13 15 7 8 1022.0 - 0.0
26/08:00pm 15.3 10.5 -2.6 29 7.4 NW 13 17 7 9 1022.0 1021.6 0.0
26/07:30pm 14.7 10.3 -2.7 30 7.1 NNW 11 13 6 7 1022.0 - 0.0
26/07:00pm 15.2 11.5 -2.7 29 7.3 N 7 9 4 5 1021.9 1021.5 0.0
26/06:30pm 16.7 12.6 -2.9 26 8.2 N 9 11 5 6 1021.5 - 0.0
26/06:00pm 17.8 13.3 -3.6 23 8.8 N 11 13 6 7 1021.1 1020.7 0.0
26/05:30pm 19.6 14.6 -3.9 20 9.9 NNW 13 17 7 9 1021.0 - 0.0
26/05:00pm 21.0 15.2 -4.2 18 10.6 NNW 17 24 9 13 1020.8 1020.5 0.0
26/04:30pm 21.8 15.7 -3.5 18 10.9 NNW 19 28 10 15 1020.7 - 0.0
26/04:00pm 22.0 16.4 -2.7 19 10.8 NNW 17 26 9 14 1020.7 1020.3 0.0
26/03:30pm 22.4 16.4 -3.1 18 11.1 NNW 19 30 10 16 1020.8 - 0.0
26/03:00pm 22.0 16.0 -2.7 19 10.8 NW 19 28 10 15 1021.0 1020.6 0.0
26/02:30pm 21.7 15.5 -2.9 19 10.7 NNW 20 28 11 15 1021.1 - 0.0
26/02:00pm 21.7 15.8 -2.2 20 10.5 NNW 19 28 10 15 1021.3 1020.9 0.0
26/01:30pm 21.4 15.6 -1.2 22 10.2 NNW 19 32 10 17 1021.5 - 0.0
26/01:00pm 20.9 15.2 -0.4 24 9.7 NNW 19 30 10 16 1021.9 1021.5 0.0
26/12:30pm 20.2 14.5 0.6 27 9.0 NNW 20 30 11 16 1022.3 - 0.0
26/12:00pm 20.0 14.1 1.4 29 8.7 N 22 33 12 18 1022.8 1022.5 0.0
26/11:30am 18.9 12.4 0.5 29 8.4 N 24 35 13 19 1023.1 - 0.0
26/11:00am 18.1 11.8 1.6 33 7.6 N 24 35 13 19 1023.7 1023.3 0.0
26/10:30am 17.3 11.0 1.7 35 7.2 N 24 33 13 18 1024.2 - 0.0
26/10:00am 16.5 10.3 2.2 38 6.6 N 24 32 13 17 1024.4 1024.1 0.0
26/09:30am 15.2 9.4 2.4 42 5.9 N 22 28 12 15 1024.4 - 0.0
26/09:00am 14.0 8.6 2.3 45 5.3 N 20 28 11 15 1024.4 1024.1 0.0
26/08:30am 12.8 7.4 2.4 49 4.7 N 20 30 11 16 1024.1 - 0.0
26/08:00am 11.6 6.4 2.4 53 4.1 N 19 24 10 13 1024.1 1023.8 0.0
26/07:30am 10.2 5.3 2.1 57 3.5 N 17 22 9 12 1023.7 - 0.0
26/07:00am 8.4 3.8 1.8 63 2.8 N 15 20 8 11 1023.4 1023.0 0.0
26/06:30am 8.0 3.4 1.8 65 2.6 NNE 15 17 8 9 1023.2 - 0.0
26/06:00am 8.9 3.6 1.8 61 3.0 NNE 19 22 10 12 1022.8 1022.5 0.0
26/05:30am 9.3 4.4 2.2 61 3.1 N 17 20 9 11 1022.7 - 0.0
26/05:00am 9.3 5.2 2.2 61 3.1 N 13 20 7 11 1022.5 1022.2 0.0
26/04:30am 10.2 5.0 2.3 58 3.5 N 19 26 10 14 1022.3 - 0.0
26/04:00am 10.3 4.9 2.4 58 3.5 N 20 28 11 15 1022.3 1021.9 0.0
26/03:30am 10.2 5.0 2.3 58 3.5 N 19 22 10 12 1022.3 - 0.0
26/03:00am 9.4 4.4 1.6 58 3.3 NNE 17 20 9 11 1022.2 1021.8 0.0
26/02:30am 9.8 4.8 1.2 55 3.7 NNE 17 20 9 11 1022.2 - 0.0
26/02:00am 10.4 5.3 1.0 52 4.0 NNE 17 20 9 11 1022.2 1021.8 0.0
26/01:30am 11.9 6.3 1.3 48 4.6 NNE 20 26 11 14 1022.2 - 0.0
26/01:00am 12.0 6.0 0.8 46 4.8 NNE 22 30 12 16 1022.3 1021.9 0.0
26/12:30am 12.9 6.5 1.0 44 5.2 NNE 24 32 13 17 1022.5 - 0.0
26/12:00am 13.1 7.1 1.1 44 5.2 NNE 22 28 12 15 1023.0 1022.6 0.0
 
Date/Time
WST
Temp
°C
App
Temp
°C
Dew
Point
Rel
Hum
%
Delta-T
°C
Wind Press
QNH
hPa
Press
MSL
hPa
Rain
since 9 am
mm
Dir
 
Spd
km/h
Gust
km/h
Spd
kts
Gust
kts
25/11:30pm 13.4 7.8 1.1 43 5.4 N 20 30 11 16 1023.2 - 0.0
25/11:00pm 11.8 6.7 0.6 46 4.8 N 17 22 9 12 1023.3 1022.9 0.0
25/10:30pm 12.3 7.1 0.4 44 5.1 NNE 17 20 9 11 1023.5 - 0.0

Other Formats:

Comma delimited format used in spreadsheet applications
http://www.bom.gov.au/fwo/IDW60801/IDW60801.99434.axf

JavaScript Object Notation format (JSON) in row-major order
http://www.bom.gov.au/fwo/IDW60801/IDW60801.99434.json